Flight Track Log - Related Links

Times and Time Zones

All times are in EDT time to prevent confusion due to time zone crossing. See the UPS2876 flight status page for this flight to view local times or setup timezone preferences in your user account.

Time Position Orientation Groundspeed Altitude Reporting Facility
EDT Latitude Longitude Course Direction KTS MPH feet Rate Location/Type
Wed 05:30:17 PM 38.2594 -85.8017 267° West 230 265 4,300  Level Indianapolis Center
Wed 05:31:19 PM 38.2558 -85.8939 267° West 274 315 7,600 3,290 Climbing Indianapolis Center
Wed 05:32:21 PM 38.2397 -85.9892 258° West 273 314 11,100 2,648 Climbing Indianapolis Center
Wed 05:37:42 PM 38.1660 -86.6250 258° West 374 430 24,500 2,260 Climbing FlightAware ADS-B
Wed 05:38:30 PM 38.1530 -86.7350 261° West 412 474 25,000 319 Climbing FlightAware ADS-B
Wed 05:39:16 PM 38.1410 -86.8280 261° West 414 476 25,000 688 Level FlightAware ADS-B
Wed 05:40:06 PM 38.1240 -86.9740 262° West 456 525 26,100 1,451 Climbing FlightAware ADS-B
Wed 05:40:47 PM 38.1100 -87.0840 261° West 474 545 27,200 1,723 Climbing FlightAware ADS-B
Wed 05:41:40 PM 38.0910 -87.2320 261° West 485 558 28,800 2,165 Climbing FlightAware ADS-B
Wed 05:42:24 PM 38.0760 -87.3540 261° West 478 550 30,700 2,357 Climbing FlightAware ADS-B
Wed 05:43:04 PM 38.0620 -87.4640 261° West 477 549 32,100 2,211 Climbing FlightAware ADS-B
Wed 05:43:40 PM 38.0490 -87.5630 261° West 469 540 33,500 1,846 Climbing FlightAware ADS-B
Wed 05:44:22 PM 38.0350 -87.6770 261° West 473 544 34,500 1,500 Climbing FlightAware ADS-B
Wed 05:45:04 PM 38.0200 -87.7910 261° West 469 540 35,600 1,098 Climbing FlightAware ADS-B
Wed 05:45:44 PM 38.0060 -87.9000 261° West 467 537 36,000 289 Climbing FlightAware ADS-B
Wed 05:46:27 PM 37.9910 -88.0130 260° West 464 534 36,000  Level FlightAware ADS-B
Wed 05:47:09 PM 37.9760 -88.1250 260° West 463 533 36,000  Level FlightAware ADS-B
Wed 05:47:52 PM 37.9600 -88.2400 260° West 464 534 36,000  Level FlightAware ADS-B
Wed 05:48:33 PM 37.9450 -88.3520 260° West 465 535 36,000  Level FlightAware ADS-B
Wed 05:49:13 PM 37.9300 -88.4600 260° West 466 536 36,000  Level FlightAware ADS-B
Wed 05:49:56 PM 37.9150 -88.5730 260° West 467 537 36,000  Level FlightAware ADS-B
Wed 05:50:41 PM 37.8980 -88.6950 260° West 468 539 36,000  Level FlightAware ADS-B
Wed 05:51:17 PM 37.8880 -88.7920 263° West 469 540 36,000  Level FlightAware ADS-B
Wed 05:52:05 PM 37.8890 -88.9260 271° West 470 541 36,000  Level FlightAware ADS-B
Wed 05:52:39 PM 37.8890 -89.0170 270° West 469 540 36,000  Level FlightAware ADS-B
Wed 05:53:23 PM 37.8900 -89.1390 271° West 469 540 36,000  Level FlightAware ADS-B
Wed 05:54:03 PM 37.8910 -89.2490 271° West 469 540 36,000  Level FlightAware ADS-B
Wed 05:54:43 PM 37.8920 -89.3560 271° West 468 539 36,000  Level FlightAware ADS-B
Wed 05:55:25 PM 37.8930 -89.4720 271° West 468 539 36,000  Level FlightAware ADS-B
Wed 05:56:21 PM 37.8930 -89.6240 270° West 468 539 36,000  Level FlightAware ADS-B
Wed 05:57:06 PM 37.8900 -89.7420 268° West 468 539 36,000  Level FlightAware ADS-B
Wed 05:57:40 PM 37.8870 -89.8280 267° West 468 539 36,000  Level FlightAware ADS-B
Wed 05:58:17 PM 37.8850 -89.9140 268° West 468 539 36,000  Level FlightAware ADS-B
Wed 05:59:05 PM 37.8820 -90.0260 268° West 468 539 36,000  Level FlightAware ADS-B
Wed 05:59:45 PM 37.8850 -90.1710 272° West 469 540 36,000  Level FlightAware ADS-B
Wed 06:00:21 PM 37.8840 -90.2560 269° West 469 540 36,000  Level FlightAware ADS-B
Wed 06:01:09 PM 37.8820 -90.3680 269° West 469 540 36,000  Level FlightAware ADS-B
Wed 06:01:46 PM 37.8810 -90.4540 269° West 469 540 36,000  Level FlightAware ADS-B
Wed 06:02:33 PM 37.8790 -90.5640 269° West 469 540 36,000  Level FlightAware ADS-B
Wed 06:03:09 PM 37.8780 -90.6480 269° West 469 540 36,000  Level FlightAware ADS-B
Wed 06:03:58 PM 37.8770 -90.7630 269° West 469 540 36,000 1,304 Level FlightAware ADS-B
Wed 06:04:41 PM 37.8580 -90.9820 264° West 459 528 38,000 1,412 Climbing FlightAware ADS-B
Wed 06:05:23 PM 37.8480 -91.0800 263° West 459 528 38,000  Level FlightAware ADS-B
Wed 06:06:05 PM 37.8370 -91.2060 264° West 460 529 38,000  Level FlightAware ADS-B
Wed 06:06:37 PM 37.8290 -91.2910 263° West 461 531 38,000  Level FlightAware ADS-B
Wed 06:07:21 PM 37.8180 -91.4080 263° West 460 529 38,000  Level FlightAware ADS-B
Wed 06:08:01 PM 37.8080 -91.5140 263° West 460 529 38,000  Level FlightAware ADS-B
Wed 06:08:37 PM 37.7980 -91.6120 263° West 460 529 38,000  Level FlightAware ADS-B
Wed 06:09:17 PM 37.7880 -91.7190 263° West 459 528 38,000  Level FlightAware ADS-B
Wed 06:09:59 PM 37.7770 -91.8290 263° West 458 527 38,000  Level FlightAware ADS-B
Wed 06:10:43 PM 37.7650 -91.9460 263° West 458 527 38,000  Level FlightAware ADS-B
Wed 06:11:49 PM 37.7470 -92.1210 263° West 457 526 38,000  Level FlightAware ADS-B
Wed 06:12:27 PM 37.7370 -92.2220 263° West 456 525 38,000  Level FlightAware ADS-B
Wed 06:13:07 PM 37.7260 -92.3270 262° West 456 525 38,000  Level FlightAware ADS-B
Wed 06:13:49 PM 37.7140 -92.4390 262° West 456 525 38,000  Level FlightAware ADS-B
Wed 06:14:31 PM 37.7030 -92.5480 263° West 455 524 38,000  Level FlightAware ADS-B
Wed 06:15:13 PM 37.6910 -92.6570 262° West 453 521 38,000  Level FlightAware ADS-B
Wed 06:15:57 PM 37.6790 -92.7730 263° West 454 522 38,000  Level FlightAware ADS-B
Wed 06:16:37 PM 37.6670 -92.8800 262° West 453 521 38,000  Level FlightAware ADS-B
Wed 06:17:13 PM 37.6570 -92.9720 262° West 453 521 38,000  Level FlightAware ADS-B
Wed 06:17:53 PM 37.6460 -93.0770 262° West 453 521 38,000  Level FlightAware ADS-B
Wed 06:18:36 PM 37.6330 -93.1880 262° West 453 521 38,000  Level FlightAware ADS-B
Wed 06:19:13 PM 37.6230 -93.2850 263° West 452 520 38,000  Level FlightAware ADS-B
Wed 06:19:51 PM 37.6110 -93.3860 262° West 452 520 38,000  Level FlightAware ADS-B
Wed 06:22:46 PM 37.5630 -93.8000 262° West 453 521 38,000  Level FlightAware ADS-B
Wed 06:23:54 PM 37.5430 -93.9760 262° West 453 521 38,000  Level FlightAware ADS-B
Wed 06:24:41 PM 37.5230 -94.1410 261° West 454 522 38,000  Level FlightAware ADS-B
Wed 06:25:21 PM 37.5110 -94.2450 262° West 454 522 38,000  Level FlightAware ADS-B
Wed 06:26:02 PM 37.4980 -94.3520 261° West 454 522 38,000  Level FlightAware ADS-B
Wed 06:26:46 PM 37.4830 -94.4680 261° West 455 524 38,000  Level FlightAware ADS-B
Wed 06:27:26 PM 37.4710 -94.5700 262° West 454 522 38,000  Level FlightAware ADS-B
Wed 06:28:10 PM 37.4560 -94.6870 261° West 454 522 38,000  Level FlightAware ADS-B
Wed 06:28:50 PM 37.4430 -94.7910 261° West 453 521 38,000  Level FlightAware ADS-B
Wed 06:29:26 PM 37.4320 -94.8840 262° West 452 520 38,000  Level FlightAware ADS-B
Wed 06:30:10 PM 37.4170 -94.9980 261° West 450 518 38,000  Level FlightAware ADS-B
Wed 06:30:50 PM 37.4040 -95.0990 261° West 449 517 38,000  Level FlightAware ADS-B
Wed 06:31:26 PM 37.3920 -95.1940 261° West 448 516 38,000  Level FlightAware ADS-B
Wed 06:32:06 PM 37.3790 -95.2960 261° West 448 516 38,000  Level FlightAware ADS-B
Wed 06:32:50 PM 37.3640 -95.4080 260° West 447 514 38,000  Level FlightAware ADS-B
Wed 06:33:30 PM 37.3510 -95.5100 261° West 447 514 38,000  Level FlightAware ADS-B
Wed 06:34:09 PM 37.3370 -95.6100 260° West 446 513 38,000  Level FlightAware ADS-B
Wed 06:34:54 PM 37.3220 -95.7250 261° West 445 512 38,000  Level FlightAware ADS-B
Wed 06:35:39 PM 37.3070 -95.8380 261° West 444 511 38,000  Level FlightAware ADS-B
Wed 06:36:14 PM 37.2940 -95.9290 260° West 444 511 38,000  Level FlightAware ADS-B
Wed 06:36:55 PM 37.2810 -96.0320 261° West 445 512 38,000  Level FlightAware ADS-B
Wed 06:37:35 PM 37.2660 -96.1340 260° West 445 512 38,000  Level FlightAware ADS-B
Wed 06:38:13 PM 37.2530 -96.2310 260° West 445 512 38,000  Level FlightAware ADS-B
Wed 06:38:53 PM 37.2390 -96.3310 260° West 445 512 38,000  Level FlightAware ADS-B
Wed 06:39:33 PM 37.2250 -96.4330 260° West 445 512 38,000  Level FlightAware ADS-B
Wed 06:40:14 PM 37.2100 -96.5370 260° West 446 513 38,000  Level FlightAware ADS-B
Wed 06:40:57 PM 37.1950 -96.6470 260° West 446 513 38,000  Level FlightAware ADS-B
Wed 06:41:41 PM 37.1790 -96.7580 260° West 446 513 38,000  Level FlightAware ADS-B
Wed 06:42:21 PM 37.1640 -96.8610 260° West 444 511 38,000  Level FlightAware ADS-B
Wed 06:43:05 PM 37.1480 -96.9730 260° West 445 512 38,000  Level FlightAware ADS-B
Wed 06:43:45 PM 37.1330 -97.0720 259° West 444 511 38,000  Level FlightAware ADS-B
Wed 06:44:29 PM 37.1170 -97.1830 260° West 445 512 38,000  Level FlightAware ADS-B
Wed 06:45:09 PM 37.1020 -97.2840 259° West 446 513 38,000  Level FlightAware ADS-B
Wed 06:45:53 PM 37.0850 -97.3970 259° West 446 513 38,000  Level FlightAware ADS-B
Wed 06:46:33 PM 37.0700 -97.4990 260° West 446 513 38,000  Level FlightAware ADS-B
Wed 06:47:13 PM 37.0550 -97.6000 259° West 445 512 38,000  Level FlightAware ADS-B
Wed 06:47:57 PM 37.0380 -97.7100 259° West 446 513 38,000  Level FlightAware ADS-B
Wed 06:48:41 PM 37.0210 -97.8230 259° West 447 514 38,000  Level FlightAware ADS-B
Wed 06:49:23 PM 37.0050 -97.9290 259° West 448 516 38,000  Level FlightAware ADS-B
Wed 06:50:07 PM 36.9880 -98.0400 259° West 448 516 38,000  Level FlightAware ADS-B
Wed 06:50:39 PM 36.9750 -98.1230 259° West 447 514 38,000  Level FlightAware ADS-B
Wed 06:51:23 PM 36.9580 -98.2330 259° West 446 513 38,000  Level FlightAware ADS-B
Wed 06:52:01 PM 36.9430 -98.3300 259° West 446 513 38,000  Level FlightAware ADS-B
Wed 06:52:37 PM 36.9280 -98.4210 258° West 443 510 38,000  Level FlightAware ADS-B
Wed 06:53:32 PM 36.9070 -98.5480 258° West 441 507 38,000  Level FlightAware ADS-B
Wed 06:54:32 PM 36.8860 -98.6750 258° West 441 507 38,000  Level FlightAware ADS-B
Wed 06:55:20 PM 36.8640 -98.8170 259° West 442 509 38,000  Level FlightAware ADS-B
Wed 06:56:08 PM 36.8470 -98.9190 258° West 442 509 38,000  Level FlightAware ADS-B
Wed 06:56:44 PM 36.8340 -98.9960 258° West 442 509 38,000  Level FlightAware ADS-B
Wed 06:57:32 PM 36.8110 -99.1460 259° West 442 509 38,000  Level FlightAware ADS-B
Wed 06:58:08 PM 36.7980 -99.2230 258° West 442 509 38,000  Level FlightAware ADS-B
Wed 06:58:56 PM 36.7800 -99.3240 257° West 442 509 38,000  Level FlightAware ADS-B
Wed 06:59:33 PM 36.7670 -99.4030 258° West 442 509 38,000  Level FlightAware ADS-B
Wed 07:00:21 PM 36.7490 -99.5050 258° West 442 509 38,000  Level FlightAware ADS-B
Wed 07:00:57 PM 36.7360 -99.5810 258° West 442 509 38,000  Level FlightAware ADS-B
Wed 07:01:33 PM 36.7230 -99.6580 258° West 442 509 38,000  Level FlightAware ADS-B
Wed 07:02:22 PM 36.7060 -99.7620 259° West 442 509 38,000  Level FlightAware ADS-B
Wed 07:02:58 PM 36.6930 -99.8380 258° West 442 509 38,000  Level FlightAware ADS-B
Wed 07:03:46 PM 36.6750 -99.9400 258° West 442 509 38,000  Level FlightAware ADS-B
Wed 07:04:22 PM 36.6620 -100.0160 258° West 442 509 38,000  Level FlightAware ADS-B
Wed 07:05:10 PM 36.6450 -100.1180 258° West 442 509 38,000  Level FlightAware ADS-B
Wed 07:05:46 PM 36.6320 -100.1940 258° West 442 509 38,000  Level FlightAware ADS-B
Wed 07:06:22 PM 36.6190 -100.2700 258° West 442 509 38,000  Level FlightAware ADS-B
Wed 07:06:54 PM 36.5686 -100.5606 258° West 454 522 38,000  Level Albuquerque Center
Wed 07:07:27 PM 36.5558 -100.6311 257° West 454 522 38,000  Level Kansas City Center
Wed 07:08:30 PM 36.5253 -100.8019 258° West 454 522 38,000  Level Kansas City Center
Wed 07:09:31 PM 36.4986 -100.9511 258° West 457 526 38,000  Level Kansas City Center
Wed 07:10:32 PM 36.4664 -101.1219 257° West 456 525 38,000  Level Kansas City Center
Wed 07:11:37 PM 36.4403 -101.2697 258° West 456 525 38,000  Level Kansas City Center
Wed 07:12:38 PM 36.4083 -101.4414 257° West 457 526 38,000  Level Kansas City Center
Wed 07:13:38 PM 36.3817 -101.5872 257° West 459 528 38,000  Level Kansas City Center
Wed 07:14:41 PM 36.3528 -101.7414 257° West 460 529 38,000  Level Kansas City Center
Wed 07:15:43 PM 36.3181 -101.9244 257° West 458 527 38,000  Level Kansas City Center
Wed 07:16:44 PM 36.2883 -102.0747 256° West 455 524 38,000  Level Kansas City Center
Wed 07:17:48 PM 36.2600 -102.2275 257° West 456 525 38,000  Level Kansas City Center
Wed 07:19:10 PM 36.2181 -102.4392 256° West 453 521 38,000  Level Albuquerque Center
Wed 07:20:11 PM 36.1883 -102.5908 256° West 456 525 38,000  Level Albuquerque Center
Wed 07:21:12 PM 36.1583 -102.7428 256° West 458 527 38,000  Level Albuquerque Center
Wed 07:22:14 PM 36.1264 -102.9039 256° West 458 527 38,000  Level Albuquerque Center
Wed 07:23:15 PM 36.0922 -103.0744 256° West 459 528 38,000  Level Albuquerque Center
Wed 07:24:16 PM 36.0611 -103.2286 256° West 460 529 38,000  Level Albuquerque Center
Wed 07:25:17 PM 36.0294 -103.3831 256° West 462 532 38,000  Level Albuquerque Center
Wed 07:26:19 PM 35.9981 -103.5381 256° West 463 533 38,000  Level Albuquerque Center
Wed 07:27:20 PM 35.9661 -103.6933 256° West 464 534 38,000  Level Albuquerque Center
Wed 07:28:21 PM 35.9336 -103.8486 256° West 466 536 38,000  Level Albuquerque Center
Wed 07:29:23 PM 35.9011 -104.0042 256° West 468 539 38,000  Level Albuquerque Center
Wed 07:30:24 PM 35.8681 -104.1606 255° West 470 541 38,000  Level Albuquerque Center
Wed 07:31:25 PM 35.8350 -104.3169 255° West 471 542 38,000  Level Albuquerque Center
Wed 07:32:27 PM 35.8017 -104.4733 255° West 472 543 38,000  Level Albuquerque Center
Wed 07:33:28 PM 35.7678 -104.6300 255° West 472 543 38,000  Level Albuquerque Center
Wed 07:34:29 PM 35.7281 -104.8136 255° West 475 547 38,000  Level Albuquerque Center
Wed 07:35:31 PM 35.6936 -104.9714 255° West 476 548 38,000  Level Albuquerque Center
Wed 07:40:45 PM 35.5410 -105.8030 255° West 471 542 38,000  Level FlightAware ADS-B
Wed 07:41:21 PM 35.5240 -105.8990 258° West 470 541 38,000  Level FlightAware ADS-B
Wed 07:42:09 PM 35.5000 -106.0220 257° West 471 542 38,000  Level FlightAware ADS-B
Wed 07:42:49 PM 35.4800 -106.1280 257° West 473 544 38,000  Level FlightAware ADS-B
Wed 07:43:25 PM 35.4630 -106.2210 257° West 473 544 38,000  Level FlightAware ADS-B
Wed 07:44:10 PM 35.4410 -106.3360 257° West 474 545 38,000  Level FlightAware ADS-B
Wed 07:44:49 PM 35.4210 -106.4410 257° West 475 547 38,000  Level FlightAware ADS-B
Wed 07:45:25 PM 35.4020 -106.5340 256° West 476 548 38,000  Level FlightAware ADS-B
Wed 07:46:05 PM 35.3820 -106.6400 257° West 477 549 38,000  Level FlightAware ADS-B
Wed 07:46:49 PM 35.3590 -106.7550 256° West 478 550 38,000  Level FlightAware ADS-B
Wed 07:47:27 PM 35.3400 -106.8560 257° West 479 551 38,000  Level FlightAware ADS-B
Wed 07:48:13 PM 35.3160 -106.9760 256° West 478 550 38,000  Level FlightAware ADS-B
Wed 07:48:53 PM 35.2950 -107.0810 256° West 479 551 38,000  Level FlightAware ADS-B
Wed 07:49:39 PM 35.2710 -107.2020 256° West 480 552 38,000 -140 Level FlightAware ADS-B
Wed 07:50:19 PM 35.2500 -107.3070 256° West 476 548 37,800 -714 Descending FlightAware ADS-B
Wed 07:51:03 PM 35.2270 -107.4210 256° West 479 551 37,000 -571 Descending FlightAware ADS-B
Wed 07:51:43 PM 35.2050 -107.5280 256° West 484 557 37,000  Level FlightAware ADS-B
Wed 07:52:19 PM 35.1860 -107.6250 257° West 483 556 37,000 -500 Level FlightAware ADS-B
Wed 07:53:07 PM 35.1600 -107.7490 256° West 481 554 36,300 -682 Descending FlightAware ADS-B
Wed 07:53:47 PM 35.1390 -107.8540 256° West 481 554 36,000 -212 Descending FlightAware ADS-B
Wed 07:54:32 PM 35.1150 -107.9720 256° West 486 559 36,000  Level FlightAware ADS-B
Wed 07:55:06 PM 35.0970 -108.0530 255° West 486 559 36,000  Level FlightAware ADS-B
Wed 07:55:54 PM 35.0730 -108.1610 255° West 486 559 36,000  Level FlightAware ADS-B
Wed 07:56:30 PM 35.0560 -108.2420 256° West 486 559 36,000  Level FlightAware ADS-B
Wed 07:57:18 PM 35.0320 -108.3500 255° West 486 559 36,000  Level FlightAware ADS-B
Wed 07:57:54 PM 35.0140 -108.4310 255° West 486 559 36,000  Level FlightAware ADS-B
Wed 07:58:48 PM 34.9690 -108.6640 257° West 496 571 36,000  Level FlightAware ADS-B
Wed 07:59:42 PM 34.9420 -108.7860 255° West 496 571 36,000  Level FlightAware ADS-B
Wed 08:00:20 PM 34.9170 -108.9080 256° West 494 568 36,000  Level FlightAware ADS-B
Wed 08:01:04 PM 34.8910 -109.0280 255° West 491 565 36,000  Level FlightAware ADS-B
Wed 08:01:45 PM 34.8670 -109.1370 255° West 488 562 36,000  Level FlightAware ADS-B
Wed 08:02:30 PM 34.8400 -109.2590 255° West 486 559 36,000 -141 Level FlightAware ADS-B
Wed 08:03:10 PM 34.8170 -109.3630 255° West 486 559 35,800 -786 Descending FlightAware ADS-B
Wed 08:03:54 PM 34.7920 -109.4800 255° West 490 564 34,900 -1,263 Descending FlightAware ADS-B
Wed 08:04:26 PM 34.7730 -109.5640 255° West 492 566 34,200 -1,184 Descending FlightAware ADS-B
Wed 08:05:10 PM 34.7460 -109.6840 255° West 490 564 33,400 -1,143 Descending FlightAware ADS-B
Wed 08:05:50 PM 34.7230 -109.7890 255° West 490 564 32,600 -1,105 Descending FlightAware ADS-B
Wed 08:06:26 PM 34.6970 -109.8830 251° West 493 567 32,000 -474 Descending FlightAware ADS-B
Wed 08:07:06 PM 34.6630 -109.9840 248° West 488 562 32,000  Level FlightAware ADS-B
Wed 08:07:50 PM 34.6220 -110.0920 245° Southwest 488 562 32,000  Level FlightAware ADS-B
Wed 08:08:30 PM 34.5830 -110.1920 245° Southwest 488 562 32,000 -805 Level FlightAware ADS-B
Wed 08:09:12 PM 34.5430 -110.2960 245° Southwest 480 552 30,900 -1,793 Descending FlightAware ADS-B
Wed 08:09:57 PM 34.5020 -110.4040 245° Southwest 467 537 29,400 -1,929 Descending FlightAware ADS-B
Wed 08:10:36 PM 34.4680 -110.4940 245° Southwest 458 527 28,200 -1,400 Descending FlightAware ADS-B
Wed 08:11:27 PM 34.4260 -110.6060 246° West 452 520 27,300 -2,023 Descending FlightAware ADS-B
Wed 08:12:02 PM 34.3940 -110.6930 246° West 442 509 25,300 -2,458 Descending FlightAware ADS-B
Wed 08:12:50 PM 34.3480 -110.7980 242° Southwest 430 495 23,900 -1,918 Descending FlightAware ADS-B
Wed 08:13:39 PM 34.2850 -110.8860 229° Southwest 424 488 22,200 -2,038 Descending FlightAware ADS-B
Wed 08:14:36 PM 34.2210 -110.9680 227° Southwest 426 490 20,300 -1,912 Descending FlightAware ADS-B
Wed 08:15:10 PM 34.1750 -111.0260 226° Southwest 415 478 19,300 -1,786 Descending FlightAware ADS-B
Wed 08:16:00 PM 34.1100 -111.1110 227° Southwest 403 464 17,800 -1,533 Descending FlightAware ADS-B
Wed 08:16:40 PM 34.0610 -111.1730 226° Southwest 387 445 17,000 -1,390 Descending FlightAware ADS-B
Wed 08:17:22 PM 34.0100 -111.2390 227° Southwest 351 404 15,900 -1,829 Descending FlightAware ADS-B
Wed 08:18:02 PM 33.9700 -111.2900 227° Southwest 332 382 14,500 -1,865 Descending FlightAware ADS-B
Wed 08:18:36 PM 33.9330 -111.3370 227° Southwest 329 379 13,600 -1,404 Descending FlightAware ADS-B
Wed 08:19:36 PM 33.8650 -111.4180 225° Southwest 316 364 12,300 -1,642 Descending FlightAware ADS-B
Wed 08:20:11 PM 33.8300 -111.4480 215° Southwest 307 353 11,000 -2,215 Descending FlightAware ADS-B
Wed 08:20:41 PM 33.7940 -111.4710 208° Southwest 301 346 9,900 -2,262 Descending FlightAware ADS-B
Wed 08:21:12 PM 33.7530 -111.4850 196° South 294 338 8,700 -1,800 Descending FlightAware ADS-B
Wed 08:21:41 PM 33.7160 -111.4980 196° South 286 329 8,100 -610 Descending FlightAware ADS-B
Wed 08:22:11 PM 33.6770 -111.5120 197° South 285 328 8,100  Level FlightAware ADS-B
Wed 08:22:36 PM 33.6440 -111.5240 197° South 287 330 8,100  Level FlightAware ADS-B
Wed 08:23:01 PM 33.6110 -111.5350 196° South 290 334 8,100  Level FlightAware ADS-B
Wed 08:23:24 PM 33.5830 -111.5450 197° South 287 330 8,100 -375 Level FlightAware ADS-B
Wed 08:23:49 PM 33.5540 -111.5610 205° Southwest 284 327 7,800 -1,222 Descending FlightAware ADS-B
Wed 08:24:18 PM 33.5180 -111.5830 207° Southwest 285 328 7,000 -1,660 Descending FlightAware ADS-B
Wed 08:24:36 PM 33.4990 -111.5940 206° Southwest 277 319 6,500 -1,149 Descending FlightAware ADS-B
Wed 08:25:05 PM 33.4710 -111.6240 222° Southwest 261 300 6,100 -471 Descending FlightAware ADS-B
Wed 08:25:27 PM 33.4580 -111.6530 242° Southwest 259 298 6,100 -480 Level FlightAware ADS-B
Wed 08:25:55 PM 33.4380 -111.6950 240° Southwest 251 289 5,700 -982 Descending FlightAware ADS-B
Wed 08:26:22 PM 33.4280 -111.7300 251° West 245 282 5,200 -971 Descending FlightAware ADS-B
Wed 08:27:03 PM 33.4280 -111.7820 270° West 221 254 4,600 -952 Descending FlightAware ADS-B
Wed 08:27:25 PM 33.4280 -111.8080 270° West 201 231 4,200 -1,080 Descending FlightAware ADS-B
Wed 08:27:53 PM 33.4290 -111.8370 272° West 190 219 3,700 -977 Descending FlightAware ADS-B
Wed 08:28:08 PM 33.4290 -111.8520 270° West 191 220 3,500 -933 Descending FlightAware ADS-B
Wed 08:28:38 PM 33.4290 -111.8830 270° West 189 217 3,000 -923 Descending FlightAware ADS-B
Wed 08:29:00 PM 33.4290 -111.9070 270° West 181 208 2,700 -873 Descending FlightAware ADS-B
Wed 08:29:33 PM 33.4290 -111.9390 270° West 162 186 2,200 -885 Descending FlightAware ADS-B
Wed 08:30:01 PM 33.4290 -111.9630 270° West 152 175 1,800 -750 Descending FlightAware ADS-B
Wed 08:30:13 PM 33.4290 -111.9720 270° West 147 169 1,700 -218 Descending FlightAware ADS-B
Wed 08:30:56 PM 33.4290 -111.9980 270° West 148 170 1,600 -140 Descending FlightAware ADS-B
Wed 08:33:20 PM 33.4280 -112.0180 267° West 26 30 -667 Descending FlightAware ADS-B
Wed 08:33:48 PM 33.4260 -112.0150 129° Southeast 26 30  Level FlightAware ADS-B
Wed 08:38:00 PM 33.4333 -112.0000 287° West  Level FlightAware Approximate

Login

Don't have an account? Register now (free) for customized features, flight alerts, and more!